createdAt,value
2019-03-21T00:00:54.908Z,77.64
2019-03-21T00:03:29.559Z,77.78
2019-03-21T00:06:05.446Z,77.67
2019-03-21T00:08:40.516Z,77.41
2019-03-21T00:12:03.585Z,77.79
2019-03-21T00:15:12.155Z,78.18
2019-03-21T00:17:56.239Z,78.26
2019-03-21T00:20:31.136Z,78.19
2019-03-21T00:23:05.750Z,78.20
2019-03-21T00:25:40.554Z,78.40
2019-03-21T00:28:15.143Z,78.37
2019-03-21T00:30:49.648Z,78.20
2019-03-21T00:33:24.531Z,78.70
2019-03-21T00:36:00.564Z,78.51
2019-03-21T00:38:35.108Z,78.50
2019-03-21T00:41:09.706Z,78.41
2019-03-21T00:43:46.040Z,78.05
2019-03-21T00:46:20.705Z,78.14
2019-03-21T00:48:55.557Z,78.09
2019-03-21T00:51:30.120Z,78.05
2019-03-21T00:54:04.635Z,77.98
2019-03-21T00:56:39.285Z,78.05
2019-03-21T00:59:13.998Z,78.26
2019-03-21T01:01:50.366Z,78.17
2019-03-21T01:04:30.216Z,78.17
2019-03-21T01:07:05.986Z,78.66
2019-03-21T01:09:41.549Z,79.17
2019-03-21T01:12:17.878Z,78.75
2019-03-21T01:14:54.344Z,78.73
2019-03-21T01:17:28.912Z,78.89
2019-03-21T01:20:03.575Z,78.87
2019-03-21T01:22:38.129Z,78.76
2019-03-21T01:25:17.087Z,79.19
2019-03-21T01:27:53.149Z,79.40
2019-03-21T01:30:27.938Z,79.18
2019-03-21T01:33:02.558Z,79.13
2019-03-21T01:35:37.502Z,79.19
2019-03-21T01:38:13.934Z,79.46
2019-03-21T01:40:49.391Z,79.56
2019-03-21T01:43:24.243Z,79.72
2019-03-21T01:45:59.197Z,80.04
2019-03-21T01:48:34.729Z,80.13
2019-03-21T01:51:09.355Z,80.30
2019-03-21T01:53:44.719Z,80.03
2019-03-21T01:56:21.119Z,79.80
2019-03-21T01:58:56.000Z,79.83
2019-03-21T02:01:30.697Z,79.71
2019-03-21T02:04:05.166Z,79.48
2019-03-21T02:06:40.049Z,79.74
2019-03-21T02:09:14.620Z,79.73
2019-03-21T02:11:49.455Z,79.97
2019-03-21T02:14:24.073Z,80.45
2019-03-21T02:16:58.603Z,80.68
2019-03-21T02:19:35.060Z,81.19
2019-03-21T02:22:12.623Z,81.76
2019-03-21T02:24:47.699Z,81.79
2019-03-21T02:27:24.051Z,81.87
2019-03-21T02:29:58.699Z,81.86
2019-03-21T02:32:33.405Z,81.89
2019-03-21T02:35:08.159Z,81.94
2019-03-21T02:37:42.693Z,81.86
2019-03-21T02:40:19.661Z,81.66
2019-03-21T02:42:54.429Z,80.85
2019-03-21T02:45:29.046Z,81.03
2019-03-21T02:48:04.023Z,81.08
2019-03-21T02:50:38.574Z,81.19
2019-03-21T02:53:13.097Z,81.29
2019-03-21T02:55:48.048Z,81.35
2019-03-21T02:58:22.713Z,81.43
2019-03-21T03:00:57.544Z,81.11
2019-03-21T03:03:34.182Z,81.21
2019-03-21T03:06:09.283Z,81.34
2019-03-21T03:08:43.918Z,81.49
2019-03-21T03:11:19.981Z,81.48
2019-03-21T03:13:54.505Z,81.75
2019-03-21T03:16:29.275Z,81.61
2019-03-21T03:19:03.729Z,81.80
2019-03-21T03:21:38.283Z,81.62
2019-03-21T03:24:12.868Z,81.71
2019-03-21T03:26:47.533Z,81.85
2019-03-21T03:29:22.456Z,81.80
2019-03-21T03:31:57.191Z,81.78
2019-03-21T03:34:31.783Z,81.84
2019-03-21T03:37:07.461Z,81.79
2019-03-21T03:39:41.992Z,82.09
2019-03-21T03:42:17.969Z,81.48
2019-03-21T03:44:52.500Z,81.54
2019-03-21T03:47:27.913Z,81.59
2019-03-21T03:50:04.054Z,81.62
2019-03-21T03:52:38.495Z,81.94
2019-03-21T03:55:15.227Z,82.10
2019-03-21T03:57:50.299Z,82.21
2019-03-21T04:00:24.916Z,81.81
2019-03-21T04:02:59.560Z,81.47
2019-03-21T04:05:34.168Z,81.49
2019-03-21T04:08:08.951Z,81.33
2019-03-21T04:10:45.678Z,81.67
2019-03-21T04:13:20.362Z,81.71
2019-03-21T04:15:54.871Z,81.67
2019-03-21T04:18:29.978Z,81.81
2019-03-21T04:21:05.234Z,82.35
2019-03-21T04:23:40.070Z,82.05
2019-03-21T04:26:26.355Z,82.35
2019-03-21T04:29:01.028Z,81.88
2019-03-21T04:31:36.584Z,81.67
2019-03-21T04:34:11.658Z,81.96
2019-03-21T04:36:46.383Z,82.24
2019-03-21T04:39:22.997Z,82.52
2019-03-21T04:41:57.875Z,82.49
2019-03-21T04:44:32.927Z,82.26
2019-03-21T04:47:09.277Z,82.16
2019-03-21T04:49:43.789Z,82.12
2019-03-21T04:52:18.541Z,82.11
2019-03-21T04:54:53.141Z,81.92
2019-03-21T04:57:28.614Z,81.63
2019-03-21T05:00:03.814Z,81.25
2019-03-21T05:02:38.393Z,81.16
2019-03-21T05:05:13.627Z,80.67
2019-03-21T05:07:48.475Z,80.49
2019-03-21T05:10:24.718Z,80.08
2019-03-21T05:12:59.933Z,80.40
2019-03-21T05:15:37.962Z,80.03
2019-03-21T05:18:16.949Z,79.83
2019-03-21T05:20:51.553Z,80.16
2019-03-21T05:23:27.884Z,80.17
2019-03-21T05:26:04.053Z,80.32
2019-03-21T05:28:38.763Z,80.51
2019-03-21T05:31:25.471Z,80.57
2019-03-21T05:34:00.204Z,80.74
2019-03-21T05:36:35.214Z,80.36
2019-03-21T05:39:12.729Z,80.45
2019-03-21T05:41:47.881Z,80.25
2019-03-21T05:44:34.979Z,80.38
2019-03-21T05:47:09.537Z,80.66
2019-03-21T05:49:45.004Z,81.11
2019-03-21T05:52:19.557Z,80.97
2019-03-21T05:54:54.311Z,80.95
2019-03-21T05:57:29.066Z,81.08
2019-03-21T06:00:03.677Z,80.41
2019-03-21T06:02:39.315Z,79.96
2019-03-21T06:05:14.195Z,79.63
2019-03-21T06:08:13.947Z,79.80
2019-03-21T06:10:51.920Z,79.96
2019-03-21T06:13:26.491Z,79.76
2019-03-21T06:16:07.788Z,80.13
2019-03-21T06:19:36.607Z,80.38
2019-03-21T06:22:58.317Z,80.18
2019-03-21T06:26:29.833Z,80.01
2019-03-21T06:29:05.794Z,80.53
2019-03-21T06:31:41.644Z,79.92
2019-03-21T06:34:16.393Z,79.99
2019-03-21T06:36:50.874Z,80.00
2019-03-21T06:39:25.420Z,79.16
2019-03-21T06:42:00.076Z,79.75
2019-03-21T06:44:34.566Z,79.75
2019-03-21T06:47:09.592Z,79.79
2019-03-21T06:49:46.494Z,79.90
2019-03-21T06:52:22.135Z,79.56
2019-03-21T06:54:56.828Z,79.19
2019-03-21T06:57:31.378Z,78.99
2019-03-21T07:00:06.567Z,78.72
2019-03-21T07:02:40.999Z,78.70
2019-03-21T07:05:15.643Z,78.28
2019-03-21T07:07:50.005Z,78.12
2019-03-21T07:10:24.492Z,77.93
2019-03-21T07:12:59.553Z,78.37
2019-03-21T07:15:36.026Z,78.13
2019-03-21T07:18:12.397Z,78.47
2019-03-21T07:20:46.955Z,78.34
2019-03-21T07:23:21.547Z,77.73
2019-03-21T07:25:56.160Z,77.97
2019-03-21T07:28:31.132Z,76.69
2019-03-21T07:31:06.131Z,76.95
2019-03-21T07:33:41.024Z,76.81
2019-03-21T07:36:16.276Z,76.00
2019-03-21T07:38:50.952Z,76.11
2019-03-21T07:41:27.234Z,75.77
2019-03-21T07:44:03.574Z,75.57
2019-03-21T07:46:38.198Z,74.90
2019-03-21T07:49:14.466Z,74.84
2019-03-21T07:54:23.923Z,74.12
2019-03-21T07:56:58.654Z,74.17
2019-03-21T07:59:33.580Z,74.16
2019-03-21T08:02:08.251Z,73.99
2019-03-21T08:04:43.041Z,74.14
2019-03-21T08:07:17.782Z,74.04
2019-03-21T08:09:52.489Z,73.70
2019-03-21T08:12:28.126Z,73.58
2019-03-21T08:15:02.778Z,73.27
2019-03-21T08:17:37.536Z,73.21
2019-03-21T08:20:14.730Z,72.67
2019-03-21T08:22:49.423Z,72.74
2019-03-21T08:25:24.271Z,72.56
2019-03-21T08:27:58.911Z,72.47
2019-03-21T08:30:36.890Z,72.47
2019-03-21T08:33:13.097Z,72.42
2019-03-21T08:35:47.635Z,71.88
2019-03-21T08:38:22.167Z,71.75
2019-03-21T08:40:57.332Z,71.24
2019-03-21T08:43:32.036Z,71.12
2019-03-21T08:46:06.953Z,70.43
2019-03-21T08:48:41.560Z,70.85
2019-03-21T08:51:16.151Z,70.48
2019-03-21T08:53:50.896Z,70.32
2019-03-21T08:56:25.504Z,70.03
2019-03-21T08:59:00.026Z,69.55
2019-03-21T09:01:34.893Z,69.49
2019-03-21T09:04:11.224Z,68.90
2019-03-21T09:06:47.660Z,69.55
2019-03-21T09:09:22.398Z,68.90
2019-03-21T09:11:57.454Z,69.52
2019-03-21T09:14:32.085Z,68.56
2019-03-21T09:17:06.806Z,68.58
2019-03-21T09:19:41.653Z,68.42
2019-03-21T09:22:16.235Z,67.98
2019-03-21T09:24:50.994Z,67.81
2019-03-21T09:27:25.617Z,67.47
2019-03-21T09:30:00.289Z,67.12
2019-03-21T09:32:34.918Z,66.61
2019-03-21T09:35:12.468Z,66.95
2019-03-21T09:37:47.407Z,66.36
2019-03-21T09:40:24.008Z,66.62
2019-03-21T09:42:59.387Z,66.08
2019-03-21T09:45:34.148Z,65.89
2019-03-21T09:48:08.861Z,66.00
2019-03-21T09:50:44.220Z,66.46
2019-03-21T09:53:18.948Z,66.36
2019-03-21T09:55:54.532Z,65.78
2019-03-21T09:58:29.434Z,65.70
2019-03-21T10:01:03.994Z,66.00
2019-03-21T10:03:40.035Z,65.58
2019-03-21T10:06:16.030Z,66.02
2019-03-21T10:08:50.893Z,66.01
2019-03-21T10:11:27.582Z,66.03
2019-03-21T10:14:02.288Z,65.84
2019-03-21T10:16:36.909Z,65.92
2019-03-21T10:19:11.968Z,66.26
2019-03-21T10:21:46.842Z,65.65
2019-03-21T10:24:24.295Z,65.32
2019-03-21T10:26:59.025Z,65.09
2019-03-21T10:29:33.684Z,65.30
2019-03-21T10:32:14.284Z,64.93
2019-03-21T10:34:44.852Z,65.11
2019-03-21T10:37:19.998Z,64.37
2019-03-21T10:39:54.555Z,64.96
2019-03-21T10:42:29.435Z,64.22
2019-03-21T10:45:04.143Z,64.30
2019-03-21T10:47:39.014Z,64.08
2019-03-21T10:50:18.010Z,64.09
2019-03-21T10:52:52.658Z,63.55
2019-03-21T10:55:27.493Z,63.54
2019-03-21T10:58:05.060Z,64.04
2019-03-21T11:00:40.154Z,63.22
2019-03-21T11:03:16.323Z,63.23
2019-03-21T11:05:50.930Z,63.08
2019-03-21T11:08:27.589Z,63.18
2019-03-21T11:11:02.270Z,62.25
2019-03-21T11:13:36.882Z,62.47
2019-03-21T11:16:11.611Z,61.87
2019-03-21T11:18:46.170Z,61.86
2019-03-21T11:21:20.716Z,61.95
2019-03-21T11:23:55.338Z,61.56
2019-03-21T11:26:29.860Z,61.03
2019-03-21T11:29:06.123Z,60.76
2019-03-21T11:31:40.868Z,60.42
2019-03-21T11:34:15.479Z,60.30
2019-03-21T11:36:50.122Z,60.99
2019-03-21T11:39:25.040Z,60.66
2019-03-21T11:41:59.768Z,59.46
2019-03-21T11:44:34.727Z,58.43
2019-03-21T11:47:09.233Z,57.58
2019-03-21T11:49:44.212Z,56.88
2019-03-21T11:52:21.297Z,56.63
2019-03-21T11:54:56.017Z,55.96
2019-03-21T11:57:30.759Z,56.35
2019-03-21T12:00:05.960Z,56.08
2019-03-21T12:02:40.873Z,56.12
2019-03-21T12:20:41.598Z,53.57
2019-03-21T12:23:16.901Z,52.89
2019-03-21T12:25:52.962Z,53.99
2019-03-21T12:28:28.069Z,52.77
2019-03-21T12:31:04.741Z,53.79
2019-03-21T12:33:39.383Z,52.69
2019-03-21T12:36:13.989Z,52.52
2019-03-21T12:38:49.024Z,52.95
2019-03-21T12:41:23.648Z,52.92
2019-03-21T12:43:59.302Z,52.31
2019-03-21T12:46:33.838Z,52.96
2019-03-21T12:49:08.330Z,53.13
2019-03-21T12:51:42.853Z,52.37
2019-03-21T14:33:09.303Z,54.94
2019-03-21T14:35:44.154Z,55.82
2019-03-21T14:38:26.403Z,56.36
2019-03-21T14:40:57.163Z,57.22
2019-03-21T14:43:33.114Z,55.41
2019-03-21T14:46:07.745Z,55.91
2019-03-21T14:48:42.938Z,55.52
2019-03-21T14:51:18.535Z,54.75
2019-03-21T14:53:53.365Z,55.36
2019-03-21T14:56:27.935Z,55.91
2019-03-21T14:59:02.844Z,56.38
2019-03-21T15:01:37.459Z,55.17
2019-03-21T15:04:13.922Z,55.41
2019-03-21T15:06:48.646Z,55.55
2019-03-21T15:09:23.519Z,56.67
2019-03-21T15:11:59.222Z,56.43
2019-03-21T15:14:34.005Z,56.51
2019-03-21T15:17:08.579Z,56.56
2019-03-21T15:19:43.416Z,56.88
2019-03-21T15:22:17.922Z,57.29
2019-03-21T15:24:55.187Z,57.30
2019-03-21T15:27:31.535Z,57.21
2019-03-21T15:30:08.099Z,58.13
2019-03-21T15:32:44.425Z,58.83
2019-03-21T15:35:21.588Z,58.44
2019-03-21T15:37:56.128Z,58.26
2019-03-21T15:40:30.992Z,58.63
2019-03-21T15:43:05.815Z,58.80
2019-03-21T15:45:41.066Z,58.54
2019-03-21T15:48:17.301Z,59.41
2019-03-21T15:51:03.544Z,58.95
2019-03-21T15:53:28.977Z,59.10
2019-03-21T15:56:03.470Z,60.21
2019-03-21T15:58:38.940Z,60.57
2019-03-21T16:01:14.323Z,60.10
2019-03-21T16:03:48.852Z,60.46
2019-03-21T16:06:23.445Z,60.56
2019-03-21T16:08:58.105Z,60.89
2019-03-21T16:11:34.362Z,61.18
2019-03-21T16:14:08.893Z,61.36
2019-03-21T16:16:43.414Z,61.89
2019-03-21T16:19:19.779Z,62.01
2019-03-21T16:21:56.606Z,61.72
2019-03-21T16:24:33.028Z,62.08
2019-03-21T16:27:07.956Z,62.47
2019-03-21T16:29:42.433Z,61.40
2019-03-21T16:32:17.209Z,61.82
2019-03-21T16:34:52.042Z,62.52
2019-03-21T16:37:28.137Z,63.25
2019-03-21T16:40:05.105Z,62.84
2019-03-21T16:42:39.788Z,63.66
2019-03-21T16:45:14.443Z,64.14
2019-03-21T16:47:50.852Z,64.69
2019-03-21T16:50:25.370Z,64.81
2019-03-21T16:52:59.952Z,65.23
2019-03-21T16:55:34.485Z,65.90
2019-03-21T16:58:09.207Z,66.30
2019-03-21T17:00:44.350Z,66.51
2019-03-21T17:03:19.183Z,67.18
2019-03-21T17:05:53.815Z,67.32
2019-03-21T17:08:28.437Z,67.15
2019-03-21T17:11:05.123Z,67.18
2019-03-21T17:13:39.730Z,67.65
2019-03-21T17:16:14.864Z,67.91
2019-03-21T17:18:49.600Z,68.30
2019-03-21T17:21:24.347Z,68.70
2019-03-21T17:23:59.047Z,69.21
2019-03-21T17:26:35.324Z,69.47
2019-03-21T17:29:10.048Z,69.98
2019-03-21T17:31:44.621Z,70.03
2019-03-21T17:34:19.414Z,70.55
2019-03-21T17:36:54.134Z,70.92
2019-03-21T17:39:28.763Z,71.19
2019-03-21T17:42:03.904Z,71.62
2019-03-21T17:44:38.545Z,71.92
2019-03-21T17:47:13.206Z,72.24
2019-03-21T17:49:47.988Z,72.81
2019-03-21T17:52:22.607Z,73.32
2019-03-21T17:54:57.177Z,73.46
2019-03-21T17:57:34.725Z,73.76
2019-03-21T18:00:13.662Z,74.10
2019-03-21T18:02:48.450Z,74.26
2019-03-21T18:05:23.318Z,75.10
2019-03-21T18:07:58.044Z,75.34
2019-03-21T18:10:35.318Z,75.44
2019-03-21T18:13:11.291Z,75.96
2019-03-21T18:15:47.734Z,76.62
2019-03-21T18:18:22.649Z,77.37
2019-03-21T18:20:57.629Z,77.35
2019-03-21T18:23:32.562Z,77.50
2019-03-21T18:26:07.267Z,77.55
2019-03-21T18:28:41.918Z,77.82
2019-03-21T18:31:17.409Z,78.44
2019-03-21T18:33:53.193Z,78.58
2019-03-21T18:36:29.284Z,78.81
2019-03-21T18:39:07.374Z,79.04
2019-03-21T18:41:42.359Z,79.25
2019-03-21T18:44:18.785Z,79.56
2019-03-21T18:46:53.894Z,79.70
2019-03-21T18:49:31.303Z,79.94
2019-03-21T18:52:08.228Z,80.11
2019-03-21T18:54:43.631Z,80.27
2019-03-21T18:57:19.977Z,80.28
2019-03-21T18:59:55.551Z,80.39
2019-03-21T19:02:30.478Z,80.73
2019-03-21T19:05:07.970Z,81.00
2019-03-21T19:07:42.699Z,81.27
2019-03-21T19:10:17.843Z,81.94
2019-03-21T19:12:52.459Z,82.14
2019-03-21T19:15:27.223Z,82.70
2019-03-21T19:18:01.927Z,82.63
2019-03-21T19:20:38.450Z,83.31
2019-03-21T19:23:13.352Z,83.64
2019-03-21T19:25:47.905Z,83.48
2019-03-21T19:28:22.554Z,83.12
2019-03-21T19:31:00.532Z,82.93
2019-03-21T19:33:35.136Z,82.67
2019-03-21T19:36:09.787Z,83.26
2019-03-21T19:38:45.314Z,84.06
2019-03-21T19:41:20.415Z,83.90
2019-03-21T19:43:55.350Z,84.01
2019-03-21T19:46:30.066Z,84.54
2019-03-21T19:49:06.285Z,84.52
2019-03-21T19:51:42.837Z,84.67
2019-03-21T19:54:17.539Z,84.93
2019-03-21T19:56:52.566Z,85.70
2019-03-21T19:59:27.212Z,85.61
2019-03-21T20:02:02.536Z,85.49
2019-03-21T20:04:39.465Z,85.60
2019-03-21T20:07:15.099Z,85.71
2019-03-21T20:09:52.256Z,86.83
2019-03-21T20:12:28.830Z,86.76
2019-03-21T20:15:03.606Z,86.59
2019-03-21T20:17:38.293Z,87.21
2019-03-21T20:20:14.962Z,87.89
2019-03-21T20:22:50.569Z,88.53
2019-03-21T20:25:27.592Z,88.87
2019-03-21T20:28:02.322Z,88.51
2019-03-21T20:30:38.998Z,88.36
2019-03-21T20:33:15.296Z,88.03
2019-03-21T20:35:50.525Z,88.33
2019-03-21T20:38:25.331Z,88.31
2019-03-21T20:41:00.856Z,88.20
2019-03-21T20:43:35.895Z,87.96
2019-03-21T20:46:11.993Z,87.76
2019-03-21T20:48:43.478Z,87.64
2019-03-21T20:51:18.228Z,87.47
2019-03-21T20:53:53.135Z,87.53
2019-03-21T20:56:28.533Z,88.02
2019-03-21T20:59:03.110Z,88.06
2019-03-21T21:01:37.739Z,88.33
2019-03-21T21:04:12.656Z,88.46
2019-03-21T21:06:47.369Z,88.01
2019-03-21T21:09:21.962Z,88.09
2019-03-21T21:11:56.941Z,88.07
2019-03-21T21:14:31.437Z,87.74
2019-03-21T21:17:08.623Z,87.60
2019-03-21T21:19:43.122Z,88.04
2019-03-21T21:22:17.869Z,87.95
2019-03-21T21:24:52.427Z,88.23
2019-03-21T21:27:28.833Z,88.48
2019-03-21T21:30:05.282Z,89.22
2019-03-21T21:32:41.367Z,90.13
2019-03-21T21:35:16.035Z,89.39
2019-03-21T21:37:51.161Z,89.00
2019-03-21T21:40:25.672Z,88.84
2019-03-21T21:43:00.549Z,88.63
2019-03-21T21:45:35.413Z,88.65
2019-03-21T21:48:10.076Z,88.88
2019-03-21T21:50:46.353Z,89.26
2019-03-21T21:53:22.805Z,89.63
2019-03-21T21:55:57.417Z,89.74
2019-03-21T21:58:32.478Z,89.55
2019-03-21T22:01:08.531Z,89.49
2019-03-21T22:03:43.100Z,89.30
2019-03-21T22:06:18.018Z,89.12
2019-03-21T22:08:52.608Z,89.00
2019-03-21T22:11:27.349Z,88.86
2019-03-21T22:14:02.196Z,89.23
2019-03-21T22:16:36.765Z,89.77
2019-03-21T22:19:11.415Z,89.82
2019-03-21T22:21:45.945Z,90.19
2019-03-21T22:24:20.473Z,89.91
2019-03-21T22:26:56.874Z,89.76
2019-03-21T22:29:31.646Z,89.82
2019-03-21T22:32:06.064Z,89.84
2019-03-21T22:34:40.725Z,89.78
2019-03-21T22:37:15.165Z,89.62
2019-03-21T22:39:49.661Z,89.45
2019-03-21T22:42:24.036Z,89.24
2019-03-21T22:44:58.530Z,88.88
2019-03-21T22:47:34.345Z,88.87
2019-03-21T22:50:14.710Z,89.08
2019-03-21T22:52:50.102Z,88.94
2019-03-21T22:55:24.695Z,89.60
2019-03-21T22:57:59.260Z,90.12
2019-03-21T23:00:40.203Z,90.34
2019-03-21T23:03:15.022Z,90.34
2019-03-21T23:05:49.639Z,91.69
2019-03-21T23:08:24.784Z,92.61
2019-03-21T23:10:59.303Z,94.45
2019-03-21T23:13:33.849Z,95.55
2019-03-21T23:16:08.315Z,95.87
2019-03-21T23:18:42.878Z,95.82
2019-03-21T23:21:19.244Z,95.84
2019-03-21T23:23:55.304Z,96.08
2019-03-21T23:26:29.863Z,96.09
2019-03-21T23:29:04.453Z,95.57
2019-03-21T23:31:39.004Z,95.14
2019-03-21T23:34:13.508Z,94.65
2019-03-21T23:36:48.127Z,94.12
2019-03-21T23:39:22.728Z,93.69
2019-03-21T23:41:57.295Z,93.37
2019-03-21T23:44:31.892Z,93.15
2019-03-21T23:47:07.499Z,92.91
2019-03-21T23:49:42.015Z,92.95
2019-03-21T23:52:16.498Z,92.75
2019-03-21T23:54:51.362Z,92.13
2019-03-21T23:57:25.894Z,92.15
